Panguitch, Utah
Current Conditions -  °F | °C
As of 8:53 PM on Wednesday 22 Oct 2014 (Local Time) from KBCE Reporting Station
Clear Clear  
Wind Chill: 38°   Ceiling: Unl
Heat Index: 43°   Visibility: 10mi
Dew Point: 25°   Wind: 8mph
Humidity: 49%   Direction: 250°WSW
Pressure: 30.3"   Gusts: NA
Location:  37.82°N, 112.44°W
Report Text: KBCE 230253Z AUTO 25007KT 10SM CLR 06/M04 A3030 RMK AO2 SLP205 T00611039 53015 TSNO
Loading
Personal Weather Stations






























Interactive Weather Map
Tropical Storm Tracking
New forecast layout! Learn more

10-Day Weather Forecast

Advertisements
Track Severe Weather on mobile